Time;durP1;ratioP1;P1;durP2;ratioP2;P2;SDS_P1;SDS_P2;PMS_P1;PMS_P2;Temp;Humidity;BMP_temperature;BMP_pressure;BME280_temperature;BME280_humidity;BME280_pressure;Samples;Min_cycle;Max_cycle;Signal;HPM_P1;HPM_P2
2023/03/26 00:01:45;;;;;;;0.47;0.47;;;;;;;9.43;61.52;98735.00;4469847;32;34434;-74
2023/03/26 00:04:20;;;;;;;0.80;0.80;;;;;;;9.48;61.21;98726.25;4469823;32;34345;-74
2023/03/26 00:06:49;;;;;;;0.45;0.45;;;;;;;9.51;61.07;98733.13;4457571;32;33622;-74
2023/03/26 00:09:17;;;;;;;0.40;0.40;;;;;;;9.23;61.81;98728.41;4469603;32;35021;-73
2023/03/26 00:11:46;;;;;;;0.40;0.40;;;;;;;9.22;61.74;98726.66;4469495;32;33657;-73
2023/03/26 00:14:16;;;;;;;0.40;0.40;;;;;;;9.17;62.14;98731.06;4469638;32;34121;-73
2023/03/26 00:16:46;;;;;;;0.40;0.40;;;;;;;9.04;62.51;98729.53;4469514;32;33988;-74
2023/03/26 00:19:15;;;;;;;0.85;0.70;;;;;;;8.94;62.63;98727.94;4469540;32;35006;-74
2023/03/26 00:21:43;;;;;;;0.40;0.40;;;;;;;8.96;62.46;98737.41;4470629;32;34298;-74
2023/03/26 00:24:13;;;;;;;0.65;0.65;;;;;;;9.06;62.35;98732.97;4470732;32;33544;-74
2023/03/26 00:26:43;;;;;;;0.50;0.50;;;;;;;8.98;62.46;98740.00;4470855;32;34260;-74
2023/03/26 00:29:12;;;;;;;0.50;0.50;;;;;;;8.96;62.60;98733.97;4469605;32;35202;-74
2023/03/26 00:31:44;;;;;;;0.40;0.40;;;;;;;8.81;63.02;98728.13;4469427;32;34506;-74
2023/03/26 00:34:17;;;;;;;1.50;1.40;;;;;;;8.91;62.95;98731.44;4470735;32;33429;-74
2023/03/26 00:36:45;;;;;;;0.40;0.40;;;;;;;9.09;62.32;98725.16;4469659;32;34641;-74
2023/03/26 00:39:16;;;;;;;0.43;0.43;;;;;;;8.85;62.72;98719.41;4470405;32;35093;-74
2023/03/26 00:41:46;;;;;;;1.50;0.77;;;;;;;8.87;62.85;98722.81;4469390;32;35314;-74
2023/03/26 00:44:14;;;;;;;0.40;0.40;;;;;;;8.98;62.51;98722.69;4470711;32;33555;-74
2023/03/26 00:46:42;;;;;;;0.40;0.40;;;;;;;8.83;63.19;98717.72;4470513;32;33824;-73
2023/03/26 00:49:13;;;;;;;0.40;0.40;;;;;;;8.90;62.98;98696.84;4469241;32;35143;-74
2023/03/26 00:51:42;;;;;;;0.40;0.40;;;;;;;8.63;64.22;98713.66;4470287;32;34453;-74
2023/03/26 00:54:10;;;;;;;0.60;0.60;;;;;;;8.77;63.59;98712.59;4470363;32;34203;-73
2023/03/26 00:56:38;;;;;;;0.50;0.50;;;;;;;8.73;63.84;98702.28;4469091;32;33977;-74
2023/03/26 00:59:08;;;;;;;0.40;0.40;;;;;;;8.98;62.96;98706.25;4469172;32;35775;-73
2023/03/26 01:01:36;;;;;;;0.40;0.40;;;;;;;9.10;62.24;98706.06;4469255;32;34482;-73
2023/03/26 01:04:29;;;;;;;0.50;0.50;;;;;;;8.76;63.74;98703.97;4470379;32;33462;-74
2023/03/26 01:07:07;;;;;;;0.40;0.40;;;;;;;8.71;63.77;98708.34;4470146;32;34655;-74
2023/03/26 01:09:43;;;;;;;1.40;1.30;;;;;;;8.65;63.57;98708.44;4469148;32;35477;-73
2023/03/26 01:12:17;;;;;;;0.85;0.82;;;;;;;8.84;63.02;98712.50;4456820;32;34503;-73
2023/03/26 01:14:50;;;;;;;0.45;0.45;;;;;;;8.49;64.17;98703.44;4456914;32;33464;-74
2023/03/26 01:17:20;;;;;;;0.60;0.60;;;;;;;8.85;63.06;98715.97;4469145;32;33627;-73
2023/03/26 01:20:19;;;;;;;0.40;0.40;;;;;;;8.63;63.42;98715.38;4469333;32;35027;-73
2023/03/26 01:22:51;;;;;;;0.40;0.40;;;;;;;9.01;62.28;98711.41;4441350;32;34599;-73
2023/03/26 01:25:22;;;;;;;0.70;0.70;;;;;;;8.67;63.07;98717.06;4469358;32;33450;-74
2023/03/26 01:27:54;;;;;;;0.40;0.40;;;;;;;8.69;63.14;98710.97;4468925;32;33898;-73
2023/03/26 01:30:36;;;;;;;0.50;0.50;;;;;;;8.64;63.22;98723.13;4468948;32;35942;-73
2023/03/26 01:33:06;;;;;;;0.40;0.40;;;;;;;8.84;62.45;98722.00;4470034;32;35332;-73
2023/03/26 01:35:37;;;;;;;0.40;0.40;;;;;;;8.65;63.16;98716.25;4469972;32;34568;-73
2023/03/26 01:38:38;;;;;;;0.70;0.70;;;;;;;8.52;63.32;98723.28;4470104;32;33920;-74
2023/03/26 01:41:10;;;;;;;0.50;0.50;;;;;;;8.74;62.52;98713.50;4469930;32;35840;-75
2023/03/26 01:43:45;;;;;;;0.40;0.40;;;;;;;8.47;63.43;98705.22;4469110;32;34480;-75
2023/03/26 01:46:14;;;;;;;0.70;0.70;;;;;;;8.61;62.97;98705.03;4469353;32;33463;-75
2023/03/26 01:48:44;;;;;;;0.40;0.40;;;;;;;8.58;62.70;98705.06;4456011;32;32583;-75
2023/03/26 01:51:23;;;;;;;0.40;0.40;;;;;;;8.60;62.59;98710.25;4468788;32;35088;-75
2023/03/26 01:53:51;;;;;;;0.40;0.40;;;;;;;8.65;62.58;98698.91;4468691;32;34086;-75
2023/03/26 01:56:59;;;;;;;2.50;0.82;;;;;;;8.54;62.65;98712.03;4468585;32;33423;-75
2023/03/26 01:59:34;;;;;;;0.75;0.70;;;;;;;8.76;61.82;98703.97;4445597;32;34667;-74
2023/03/26 02:02:14;;;;;;;0.40;0.40;;;;;;;8.62;61.85;98713.66;4469956;32;34922;-75
2023/03/26 02:04:51;;;;;;;0.40;0.40;;;;;;;8.67;61.64;98711.88;4469887;32;34590;-75
2023/03/26 02:07:33;;;;;;;2.08;1.23;;;;;;;8.50;62.19;98717.28;4469672;32;34282;-75
2023/03/26 02:10:09;;;;;;;0.40;0.40;;;;;;;8.71;61.70;98704.00;4469613;32;34689;-75
2023/03/26 02:12:41;;;;;;;0.43;0.43;;;;;;;8.49;62.62;98713.81;4468338;32;35721;-75
2023/03/26 02:15:10;;;;;;;0.40;0.40;;;;;;;8.51;62.37;98717.25;4468236;32;34520;-75
2023/03/26 02:17:39;;;;;;;0.40;0.40;;;;;;;8.53;62.07;98709.47;4468133;32;33393;-75
2023/03/26 02:20:09;;;;;;;0.40;0.40;;;;;;;8.35;62.50;98718.28;4468230;32;33826;-75
2023/03/26 02:22:39;;;;;;;0.50;0.50;;;;;;;8.60;61.42;98726.66;4469362;32;34988;-75
2023/03/26 02:25:10;;;;;;;0.50;0.50;;;;;;;8.43;62.66;98724.25;4468204;32;34450;-75
2023/03/26 02:27:41;;;;;;;4.70;2.28;;;;;;;8.16;63.24;98725.41;4455510;32;33776;-74
2023/03/26 02:30:13;;;;;;;0.40;0.40;;;;;;;8.26;62.54;98711.47;4468401;32;34000;-75
2023/03/26 02:32:42;;;;;;;0.40;0.40;;;;;;;8.25;62.67;98708.91;4469561;32;35154;-74
2023/03/26 02:35:11;;;;;;;0.45;0.45;;;;;;;8.46;62.02;98710.41;4469216;32;35217;-75
2023/03/26 02:37:40;;;;;;;0.40;0.40;;;;;;;7.97;63.42;98709.19;4468298;32;34370;-74
2023/03/26 02:40:10;;;;;;;0.50;0.50;;;;;;;7.90;63.38;98702.34;4469396;32;33508;-75
2023/03/26 02:42:39;;;;;;;0.40;0.40;;;;;;;7.88;63.92;98706.69;4468274;32;35003;-75
2023/03/26 02:45:08;;;;;;;0.50;0.50;;;;;;;8.02;63.32;98704.81;4469211;32;34606;-74
2023/03/26 02:47:37;;;;;;;0.47;0.47;;;;;;;8.10;63.17;98700.41;4468191;32;33466;-74
2023/03/26 02:50:08;;;;;;;0.40;0.40;;;;;;;7.82;63.80;98696.38;4469120;32;33957;-75
2023/03/26 02:52:38;;;;;;;0.40;0.40;;;;;;;8.07;63.38;98684.03;4469200;32;35956;-75
2023/03/26 02:55:07;;;;;;;0.40;0.40;;;;;;;8.25;62.58;98685.56;4468850;32;34367;-75
2023/03/26 02:57:36;;;;;;;0.40;0.40;;;;;;;8.40;62.08;98692.28;4469618;32;34374;-74
2023/03/26 03:00:14;;;;;;;0.40;0.40;;;;;;;8.31;62.31;98688.06;4471536;32;34022;-74
2023/03/26 03:02:46;;;;;;;0.40;0.40;;;;;;;8.20;62.96;98695.13;4471465;32;35249;-74
2023/03/26 03:05:16;;;;;;;0.40;0.40;;;;;;;8.53;61.73;98697.34;4471435;32;34426;-74
2023/03/26 03:07:57;;;;;;;0.47;0.47;;;;;;;8.50;61.63;98693.91;4470519;32;33512;-75
2023/03/26 03:10:27;;;;;;;0.60;0.60;;;;;;;8.47;61.82;98694.81;4471040;32;33962;-75
2023/03/26 03:12:57;;;;;;;0.50;0.50;;;;;;;8.59;61.20;98682.56;4470220;32;34965;-74
2023/03/26 03:15:27;;;;;;;0.50;0.50;;;;;;;8.61;61.23;98688.59;4471052;32;35178;-74
2023/03/26 03:17:55;;;;;;;0.82;0.82;;;;;;;8.46;61.31;98693.09;4469816;32;33762;-75
2023/03/26 03:20:26;;;;;;;0.40;0.40;;;;;;;8.90;60.31;98683.84;4471341;32;33962;-74
2023/03/26 03:22:54;;;;;;;0.40;0.40;;;;;;;8.84;60.27;98688.25;4470984;32;35861;-75
2023/03/26 03:25:22;;;;;;;0.50;0.50;;;;;;;8.54;61.14;98683.50;4471017;32;34517;-74
2023/03/26 03:27:52;;;;;;;0.68;0.68;;;;;;;8.65;60.80;98682.50;4469855;32;34313;-74
2023/03/26 03:30:20;;;;;;;0.40;0.40;;;;;;;8.59;60.91;98688.59;4470935;32;33998;-75
2023/03/26 03:32:53;;;;;;;0.73;0.73;;;;;;;8.50;61.19;98692.16;4471283;32;33600;-74
2023/03/26 03:35:22;;;;;;;0.40;0.40;;;;;;;8.60;60.68;98674.75;4471178;32;34506;-74
2023/03/26 03:37:51;;;;;;;0.40;0.40;;;;;;;8.36;61.45;98681.09;4471138;32;34309;-75
2023/03/26 03:40:19;;;;;;;0.40;0.40;;;;;;;8.24;61.65;98681.22;4470853;32;33998;-75
2023/03/26 03:42:48;;;;;;;0.40;0.40;;;;;;;8.10;62.03;98695.25;4469696;32;35150;-74
2023/03/26 03:45:18;;;;;;;0.40;0.40;;;;;;;8.12;62.13;98693.47;4471167;32;35224;-74
2023/03/26 03:47:47;;;;;;;1.80;1.70;;;;;;;7.92;62.50;98695.41;4471069;32;34291;-75
2023/03/26 03:50:16;;;;;;;0.40;0.40;;;;;;;8.11;62.17;98702.12;4469727;32;33104;-75
2023/03/26 03:52:45;;;;;;;0.40;0.40;;;;;;;8.58;60.59;98697.28;4471108;32;35821;-75
2023/03/26 03:55:16;;;;;;;0.62;0.62;;;;;;;8.03;62.02;98698.78;4470999;32;34570;-74
2023/03/26 03:57:45;;;;;;;0.40;0.40;;;;;;;7.98;62.05;98703.16;4470941;32;33371;-75
2023/03/26 04:00:14;;;;;;;0.40;0.40;;;;;;;7.57;63.23;98696.63;4471069;32;33801;-75
2023/03/26 04:02:44;;;;;;;0.40;0.40;;;;;;;7.24;64.23;98709.00;4470677;32;35979;-74
2023/03/26 04:05:13;;;;;;;0.40;0.40;;;;;;;6.86;65.48;98709.25;4469519;32;33008;-75
2023/03/26 04:07:42;;;;;;;0.50;0.50;;;;;;;6.74;66.05;98704.97;4469634;32;33696;-74
2023/03/26 04:10:14;;;;;;;0.50;0.50;;;;;;;6.61;66.58;98711.97;4470747;32;33929;-75
2023/03/26 04:13:03;;;;;;;0.40;0.40;;;;;;;6.54;67.24;98712.84;4470974;32;34499;-74
2023/03/26 04:15:34;;;;;;;0.50;0.50;;;;;;;6.39;68.36;98708.62;4470935;32;34587;-75
2023/03/26 04:18:03;;;;;;;0.50;0.50;;;;;;;6.42;68.51;98706.88;4470887;32;32657;-74
2023/03/26 04:20:32;;;;;;;0.55;0.55;;;;;;;6.31;68.61;98705.19;4456944;32;34048;-74
2023/03/26 04:23:02;;;;;;;0.50;0.50;;;;;;;5.95;69.42;98706.97;4469663;32;35024;-74
2023/03/26 04:25:32;;;;;;;0.40;0.40;;;;;;;5.39;72.34;98699.31;4469785;32;34324;-74
2023/03/26 04:28:05;;;;;;;0.50;0.50;;;;;;;5.42;72.72;98707.06;4470637;32;34291;-74
2023/03/26 04:30:35;;;;;;;0.50;0.50;;;;;;;5.37;73.47;98713.94;4470534;32;34702;-74
2023/03/26 04:33:05;;;;;;;0.50;0.50;;;;;;;5.17;74.07;98706.22;4470750;32;35867;-74
2023/03/26 04:35:34;;;;;;;1.12;1.12;;;;;;;5.53;72.19;98703.63;4469785;32;34459;-74
2023/03/26 04:38:06;;;;;;;0.50;0.50;;;;;;;4.75;74.95;98700.13;4469547;32;34067;-74
2023/03/26 04:40:35;;;;;;;0.60;0.60;;;;;;;4.46;75.84;98710.34;4470815;32;33838;-75
2023/03/26 04:43:05;;;;;;;0.65;0.65;;;;;;;4.64;76.90;98705.25;4469643;32;35756;-74
2023/03/26 04:45:34;;;;;;;0.70;0.70;;;;;;;4.97;75.73;98708.75;4469581;32;33780;-74
2023/03/26 04:48:02;;;;;;;0.70;0.70;;;;;;;5.22;74.65;98709.62;4469581;32;33379;-74
2023/03/26 04:50:30;;;;;;;0.60;0.60;;;;;;;5.69;73.05;98707.91;4470598;32;33847;-74
2023/03/26 04:52:59;;;;;;;0.90;0.90;;;;;;;5.74;72.65;98713.94;4469439;32;35940;-74
2023/03/26 04:55:38;;;;;;;0.60;0.60;;;;;;;5.99;71.36;98713.91;4469508;32;33737;-74
2023/03/26 04:58:08;;;;;;;1.40;1.30;;;;;;;6.11;71.00;98718.19;4470570;32;33573;-74
2023/03/26 05:00:42;;;;;;;0.50;0.50;;;;;;;6.25;70.94;98717.28;4469510;32;34015;-75
2023/03/26 05:03:11;;;;;;;1.65;0.93;;;;;;;6.78;69.55;98712.72;4456318;32;35156;-74
2023/03/26 05:05:39;;;;;;;0.50;0.50;;;;;;;6.52;69.80;98710.28;4469178;32;35282;-74
2023/03/26 05:08:09;;;;;;;0.50;0.50;;;;;;;6.69;71.85;98711.91;4469478;32;34219;-75
2023/03/26 05:10:37;;;;;;;0.95;0.95;;;;;;;6.84;68.76;98711.84;4470524;32;34775;-74
2023/03/26 05:13:06;;;;;;;0.50;0.50;;;;;;;7.13;70.22;98718.53;4470478;32;35855;-75
2023/03/26 05:15:35;;;;;;;1.50;1.40;;;;;;;7.69;67.43;98718.97;4470533;32;35161;-74
2023/03/26 05:18:03;;;;;;;0.50;0.50;;;;;;;9.43;61.74;98711.63;4470414;32;34269;-74
2023/03/26 05:20:32;;;;;;;0.50;0.50;;;;;;;10.30;56.66;98719.59;4469459;32;32255;-74
2023/03/26 05:23:01;;;;;;;0.88;0.88;;;;;;;10.38;56.72;98717.75;4470328;32;35113;-75
2023/03/26 05:25:30;;;;;;;0.93;0.93;;;;;;;10.35;57.97;98722.16;4470309;32;34497;-75
2023/03/26 05:27:59;;;;;;;0.40;0.40;;;;;;;8.89;63.79;98718.50;4470312;32;33624;-74
2023/03/26 05:30:29;;;;;;;0.40;0.40;;;;;;;8.58;65.13;98718.03;4470097;32;33010;-74
2023/03/26 05:32:57;;;;;;;0.40;0.40;;;;;;;8.23;65.74;98719.28;4470274;32;35047;-75
2023/03/26 05:35:26;;;;;;;0.55;0.55;;;;;;;8.47;63.33;98710.41;4469176;32;33683;-74
2023/03/26 05:37:55;;;;;;;0.40;0.40;;;;;;;8.60;64.14;98712.84;4469127;32;33565;-75
2023/03/26 05:40:23;;;;;;;0.40;0.40;;;;;;;8.30;67.51;98707.13;4470161;32;33830;-74
2023/03/26 05:42:52;;;;;;;0.40;0.40;;;;;;;8.22;66.66;98711.53;4470247;32;35092;-75
2023/03/26 05:45:22;;;;;;;0.40;0.40;;;;;;;8.16;67.99;98712.44;4470224;32;33629;-75
2023/03/26 05:47:53;;;;;;;0.40;0.40;;;;;;;8.03;68.95;98714.34;4461628;32;269919;-75
2023/03/26 05:50:22;;;;;;;0.70;0.70;;;;;;;8.28;66.85;98708.88;4456405;32;33079;-74
2023/03/26 05:52:51;;;;;;;0.50;0.50;;;;;;;8.41;68.08;98705.22;4468845;32;35056;-75
2023/03/26 05:55:22;;;;;;;0.40;0.40;;;;;;;8.52;67.26;98710.31;4470144;32;32795;-74
2023/03/26 05:58:00;;;;;;;0.40;0.40;;;;;;;9.15;65.34;98706.00;4469887;32;32320;-75
2023/03/26 06:00:30;;;;;;;0.40;0.40;;;;;;;10.33;62.68;98703.09;4468469;32;33045;-74
2023/03/26 06:03:00;;;;;;;0.40;0.40;;;;;;;10.99;58.98;98697.34;4440339;32;35150;-79
2023/03/26 06:05:36;;;;;;;0.40;0.40;;;;;;;12.10;55.20;98704.19;4438367;32;35294;-76
2023/03/26 06:08:07;;;;;;;0.40;0.40;;;;;;;12.77;53.01;98697.94;4435011;32;34306;-78
2023/03/26 06:10:39;;;;;;;0.82;0.77;;;;;;;12.78;53.41;98694.44;4447187;32;34023;-75
2023/03/26 06:13:10;;;;;;;0.30;0.30;;;;;;;13.24;53.97;98688.63;4450940;32;34057;-78
2023/03/26 06:15:40;;;;;;;0.40;0.40;;;;;;;13.91;51.51;98691.69;4443948;32;34285;-78
2023/03/26 06:18:10;;;;;;;0.60;0.60;;;;;;;12.93;54.31;98696.56;4436276;32;32052;-78
2023/03/26 06:20:43;;;;;;;0.50;0.50;;;;;;;12.83;52.52;98700.34;4443005;32;33792;-79
2023/03/26 06:23:14;;;;;;;0.50;0.50;;;;;;;13.22;52.54;98700.06;4443956;32;35945;-75
2023/03/26 06:25:45;;;;;;;0.30;0.30;;;;;;;13.49;51.63;98705.31;4443941;32;35108;-74
2023/03/26 06:28:14;;;;;;;3.72;0.90;;;;;;;14.08;50.12;98706.78;4442670;32;33257;-76
2023/03/26 06:30:44;;;;;;;0.45;0.45;;;;;;;14.17;48.05;98711.69;4443974;32;33895;-75
2023/03/26 06:33:12;;;;;;;0.30;0.30;;;;;;;14.32;47.92;98711.16;4444559;32;34541;-76
2023/03/26 06:35:44;;;;;;;0.40;0.40;;;;;;;14.82;47.34;98714.63;4445094;32;34591;-76
2023/03/26 06:38:12;;;;;;;0.40;0.40;;;;;;;15.40;45.00;98708.84;4443642;32;32687;-76
2023/03/26 06:40:41;;;;;;;1.65;1.55;;;;;;;15.30;45.52;98709.22;4432673;32;34361;-75
2023/03/26 06:43:13;;;;;;;0.40;0.40;;;;;;;16.06;43.28;98712.22;4444948;32;34788;-74
2023/03/26 06:45:43;;;;;;;0.28;0.28;;;;;;;15.16;45.26;98701.06;4445088;32;34207;-78
2023/03/26 06:48:13;;;;;;;0.30;0.30;;;;;;;16.17;43.45;98705.66;4440702;32;31840;-74
2023/03/26 06:50:41;;;;;;;0.30;0.30;;;;;;;16.36;42.28;98711.81;4438461;32;33959;-74
2023/03/26 06:53:10;;;;;;;0.20;0.20;;;;;;;16.22;42.88;98714.19;4431820;32;34369;-77
2023/03/26 06:55:40;;;;;;;0.65;0.65;;;;;;;16.81;40.80;98721.13;4437735;32;33988;-78
2023/03/26 06:58:11;;;;;;;0.20;0.20;;;;;;;16.99;40.31;98718.63;4431589;32;33374;-75
2023/03/26 07:00:41;;;;;;;0.30;0.30;;;;;;;15.83;44.31;98725.47;4437956;32;34285;-74
2023/03/26 07:03:10;;;;;;;0.40;0.40;;;;;;;16.39;42.60;98724.78;4446881;32;34917;-78
2023/03/26 07:05:48;;;;;;;0.20;0.20;;;;;;;14.73;45.49;98726.31;4429808;32;33272;-75
2023/03/26 07:08:18;;;;;;;0.80;0.77;;;;;;;13.88;45.37;98726.66;4453451;32;32609;-75
2023/03/26 07:10:52;;;;;;;0.30;0.30;;;;;;;13.60;48.00;98726.72;4453525;32;33914;-74
2023/03/26 07:13:21;;;;;;;0.30;0.30;;;;;;;13.11;50.72;98728.28;4437935;32;34309;-77
2023/03/26 07:15:51;;;;;;;0.62;0.62;;;;;;;13.05;50.68;98735.37;4425093;32;33493;-76
2023/03/26 07:18:19;;;;;;;0.30;0.30;;;;;;;12.44;51.80;98737.19;4439201;32;33266;-75
2023/03/26 07:20:49;;;;;;;0.30;0.30;;;;;;;14.61;48.88;98727.59;4438243;32;34735;-76
2023/03/26 07:23:20;;;;;;;0.30;0.30;;;;;;;13.92;48.35;98716.94;4437752;32;34401;-75
2023/03/26 07:25:51;;;;;;;4.90;1.40;;;;;;;14.16;46.56;98725.72;4438122;32;34566;-75
2023/03/26 07:28:46;;;;;;;0.35;0.35;;;;;;;14.59;46.07;98725.06;4441449;32;32700;-76
2023/03/26 07:31:45;;;;;;;0.45;0.45;;;;;;;13.73;47.13;98721.94;4439033;32;34659;-75
2023/03/26 07:34:43;;;;;;;0.60;0.60;;;;;;;15.36;44.87;98722.09;4438956;32;35105;-81
2023/03/26 07:37:11;;;;;;;0.20;0.20;;;;;;;15.65;46.23;98725.31;4434296;32;34333;-75
2023/03/26 07:39:44;;;;;;;0.25;0.25;;;;;;;16.76;43.11;98727.53;4439971;32;33889;-76
2023/03/26 07:42:27;;;;;;;0.20;0.20;;;;;;;14.68;47.32;98723.88;4439639;32;33940;-75
2023/03/26 07:45:31;;;;;;;0.50;0.50;;;;;;;14.17;48.42;98723.06;4439540;32;35026;-77
2023/03/26 07:48:00;;;;;;;0.52;0.52;;;;;;;13.30;50.97;98733.78;4439722;32;35172;-76
2023/03/26 07:50:30;;;;;;;0.35;0.35;;;;;;;14.13;49.98;98725.81;4438321;32;35517;-78
2023/03/26 07:52:58;;;;;;;1.30;1.20;;;;;;;13.87;48.93;98729.34;4438149;32;33801;-76
2023/03/26 07:55:27;;;;;;;0.60;0.60;;;;;;;13.40;50.81;98720.41;4437271;32;34859;-78
2023/03/26 07:58:38;;;;;;;0.45;0.45;;;;;;;14.70;48.07;98726.41;4424750;32;32951;-76
2023/03/26 08:01:26;;;;;;;1.65;1.55;;;;;;;13.87;48.87;98718.88;4439829;32;33590;-75
2023/03/26 08:04:01;;;;;;;0.30;0.30;;;;;;;15.01;47.73;98725.25;4440113;32;34073;-77
2023/03/26 08:07:02;;;;;;;0.47;0.47;;;;;;;15.24;45.81;98729.59;4429024;32;35246;-77
2023/03/26 08:09:44;;;;;;;;;;;;;;;15.02;46.56;98726.94;4438975;32;32597;-76
2023/03/26 08:12:27;;;;;;;0.40;0.40;;;;;;;15.59;45.20;98720.31;4439838;32;33232;-75
2023/03/26 08:15:07;;;;;;;0.30;0.30;;;;;;;14.41;46.32;98721.28;4438594;32;33909;-76
2023/03/26 08:17:46;;;;;;;0.30;0.30;;;;;;;14.77;45.72;98713.03;4438405;32;35849;-75
2023/03/26 08:20:29;;;;;;;0.30;0.30;;;;;;;14.89;43.79;98716.09;4438455;32;33652;-75
2023/03/26 08:23:32;;;;;;;0.35;0.35;;;;;;;15.08;44.54;98711.00;4439383;32;34287;-74
2023/03/26 08:26:13;;;;;;;0.40;0.40;;;;;;;14.03;47.17;98709.59;4437653;32;33661;-75
2023/03/26 08:28:58;;;;;;;0.30;0.30;;;;;;;14.69;44.25;98715.06;4439043;32;35226;-75
2023/03/26 08:31:35;;;;;;;0.30;0.30;;;;;;;14.68;44.64;98712.50;4438481;32;34437;-74
2023/03/26 08:34:04;;;;;;;0.35;0.35;;;;;;;14.59;44.56;98698.88;4438354;32;33239;-74
2023/03/26 08:36:32;;;;;;;0.37;0.37;;;;;;;15.57;42.57;98701.16;4439400;32;34810;-74
2023/03/26 08:39:00;;;;;;;0.37;0.37;;;;;;;15.95;41.17;98703.94;4439221;32;34995;-74
2023/03/26 08:41:28;;;;;;;0.30;0.30;;;;;;;15.74;41.58;98705.66;4439729;32;35158;-74
2023/03/26 08:44:30;;;;;;;0.40;0.40;;;;;;;15.15;42.51;98696.72;4439493;32;34400;-74
2023/03/26 08:47:10;;;;;;;0.20;0.20;;;;;;;15.72;40.63;98699.63;4425644;32;33123;-74
2023/03/26 08:49:53;;;;;;;0.30;0.30;;;;;;;16.02;41.13;98702.75;4438185;32;34441;-74
2023/03/26 08:52:34;;;;;;;0.20;0.20;;;;;;;15.12;43.74;98702.97;4438258;32;34515;-74
2023/03/26 08:55:21;;;;;;;0.30;0.30;;;;;;;14.55;43.97;98694.59;4437057;32;34115;-74
2023/03/26 08:58:07;;;;;;;0.30;0.30;;;;;;;15.17;44.34;98705.37;4439446;32;33957;-74
2023/03/26 09:00:57;;;;;;;0.30;0.30;;;;;;;15.54;42.26;98693.38;4439272;32;35131;-76
2023/03/26 09:03:34;;;;;;;0.60;0.60;;;;;;;16.55;41.34;98688.16;4439379;32;34367;-74
2023/03/26 09:06:32;;;;;;;0.30;0.30;;;;;;;16.68;42.09;98685.84;4439414;32;33178;-74
2023/03/26 09:09:33;;;;;;;0.40;0.40;;;;;;;16.11;40.68;98691.88;4438330;32;34036;-74
2023/03/26 09:12:32;;;;;;;1.62;1.25;;;;;;;15.86;40.12;98689.44;4439412;32;35916;-74
2023/03/26 09:15:25;;;;;;;0.20;0.20;;;;;;;16.63;39.17;98685.19;4437997;32;34563;-75
2023/03/26 09:18:07;;;;;;;0.30;0.30;;;;;;;15.89;39.87;98685.84;4439366;32;33683;-74
2023/03/26 09:21:13;;;;;;;0.25;0.25;;;;;;;16.27;40.43;98691.19;4437953;32;33909;-74
2023/03/26 09:23:45;;;;;;;0.25;0.25;;;;;;;15.78;42.20;98682.84;4439251;32;35185;-74
2023/03/26 09:26:29;;;;;;;0.20;0.20;;;;;;;17.02;41.84;98681.66;4439149;32;35250;-74
2023/03/26 09:29:06;;;;;;;0.43;0.43;;;;;;;17.36;40.21;98677.38;4437989;32;33285;-74
2023/03/26 09:31:46;;;;;;;0.57;0.57;;;;;;;17.65;41.79;98669.81;4439105;32;33886;-74
2023/03/26 09:34:42;;;;;;;0.20;0.20;;;;;;;17.86;40.87;98662.63;4439030;32;35852;-74
2023/03/26 09:37:17;;;;;;;0.40;0.40;;;;;;;17.98;40.68;98664.63;4438141;32;34548;-74
2023/03/26 09:40:11;;;;;;;0.20;0.20;;;;;;;16.79;41.09;98665.16;4439000;32;34290;-74
2023/03/26 09:42:52;;;;;;;0.40;0.40;;;;;;;16.79;42.47;98653.78;4432904;32;33668;-75
2023/03/26 09:45:24;;;;;;;0.30;0.30;;;;;;;15.59;43.37;98648.59;4437816;32;35128;-75
2023/03/26 09:48:10;;;;;;;0.22;0.22;;;;;;;16.86;41.83;98644.72;4438914;32;34429;-75
2023/03/26 09:50:45;;;;;;;0.70;0.70;;;;;;;16.19;42.10;98644.25;4438799;32;33567;-75
2023/03/26 09:53:25;;;;;;;0.45;0.45;;;;;;;16.24;43.82;98647.53;4437974;32;33932;-75
2023/03/26 09:56:22;;;;;;;0.22;0.22;;;;;;;16.57;43.35;98635.53;4437627;32;35301;-75
2023/03/26 09:59:19;;;;;;;0.28;0.28;;;;;;;15.44;44.99;98618.59;4438716;32;34549;-75
2023/03/26 10:02:25;;;;;;;0.50;0.50;;;;;;;15.62;45.16;98607.34;4432793;32;33563;-75
2023/03/26 10:05:52;;;;;;;0.20;0.20;;;;;;;15.53;46.22;98603.34;4438665;32;33942;-74
2023/03/26 10:08:43;;;;;;;8.57;0.62;;;;;;;16.03;45.00;98623.06;4416493;32;35056;-75
2023/03/26 10:11:40;;;;;;;0.30;0.30;;;;;;;16.05;45.20;98633.50;4440456;32;34353;-75
2023/03/26 10:14:17;;;;;;;1.35;1.05;;;;;;;15.48;48.15;98628.91;4423657;32;33680;-74
2023/03/26 10:17:14;;;;;;;0.30;0.30;;;;;;;14.28;51.63;98625.78;4439408;32;33959;-75
2023/03/26 10:19:48;;;;;;;0.20;0.20;;;;;;;14.66;55.20;98630.50;4440379;32;35770;-74
2023/03/26 10:22:46;;;;;;;0.30;0.30;;;;;;;14.94;52.40;98618.00;4440725;32;35251;-74
2023/03/26 10:25:43;;;;;;;0.40;0.40;;;;;;;14.76;53.26;98610.88;4439683;32;34267;-75
2023/03/26 10:28:34;;;;;;;0.20;0.20;;;;;;;15.40;55.14;98611.78;4436570;32;33886;-75
2023/03/26 10:31:05;;;;;;;0.37;0.37;;;;;;;16.74;52.67;98598.78;4440297;32;35009;-75
2023/03/26 10:34:11;;;;;;;0.30;0.30;;;;;;;19.20;49.03;98594.72;4440259;32;34422;-75
2023/03/26 10:37:16;;;;;;;0.32;0.32;;;;;;;19.40;46.96;98591.78;4439121;32;33710;-75
2023/03/26 10:40:31;;;;;;;1.50;1.05;;;;;;;17.80;45.53;98584.75;4440243;32;34735;-75
2023/03/26 10:43:13;;;;;;;1.17;1.10;;;;;;;18.09;46.93;98569.22;4367470;32;34250;-76
2023/03/26 10:45:54;;;;;;;0.35;0.35;;;;;;;16.74;46.48;98566.41;4392697;32;35207;-75
2023/03/26 10:48:45;;;;;;;0.95;0.90;;;;;;;15.81;51.17;98569.81;4427038;32;33120;-75
2023/03/26 10:51:41;;;;;;;0.20;0.20;;;;;;;15.69;49.41;98560.69;4434429;32;34797;-75
2023/03/26 10:54:34;;;;;;;0.30;0.30;;;;;;;15.96;50.52;98558.63;4439028;32;34250;-75
2023/03/26 10:57:11;;;;;;;0.35;0.35;;;;;;;16.43;48.08;98550.31;4440229;32;34594;-75
2023/03/26 10:59:39;;;;;;;0.30;0.30;;;;;;;15.78;50.96;98549.81;4439011;32;34370;-75
2023/03/26 11:02:39;;;;;;;0.30;0.30;;;;;;;14.34;57.70;98546.13;4426291;32;33242;-77
2023/03/26 11:05:51;;;;;;;0.40;0.40;;;;;;;13.91;57.60;98547.75;4438649;32;35142;-74
2023/03/26 11:08:28;;;;;;;0.57;0.57;;;;;;;15.77;57.37;98540.22;4410780;32;34219;-74
2023/03/26 11:12:06;;;;;;;0.20;0.20;;;;;;;15.97;52.27;98538.47;4439074;32;32805;-75
2023/03/26 11:14:57;;;;;;;0.43;0.43;;;;;;;15.93;51.44;98535.13;4382919;32;34083;-74
2023/03/26 11:18:03;;;;;;;1.05;0.85;;;;;;;16.33;49.45;98520.16;4437454;32;35163;-74
2023/03/26 11:20:35;;;;;;;0.28;0.28;;;;;;;15.77;50.59;98500.00;4438724;32;34446;-75
2023/03/26 11:24:00;;;;;;;0.50;0.50;;;;;;;15.55;53.07;98521.94;4440197;32;33487;-74
2023/03/26 11:26:55;;;;;;;0.20;0.20;;;;;;;15.79;53.16;98521.78;4391994;32;34567;-74
2023/03/26 11:29:40;;;;;;;0.20;0.20;;;;;;;15.89;53.98;98516.03;4438733;32;34159;-74
2023/03/26 11:32:11;;;;;;;4.15;1.33;;;;;;;15.95;53.61;98498.28;4438996;32;35024;-74
2023/03/26 11:34:58;;;;;;;0.50;0.50;;;;;;;17.23;50.24;98491.19;4426786;32;33466;-74
2023/03/26 11:37:49;;;;;;;13.52;0.75;;;;;;;19.58;45.91;98481.56;4438857;32;32498;-75
2023/03/26 11:40:26;;;;;;;0.30;0.30;;;;;;;23.01;33.60;98467.06;4426014;32;33611;-76
2023/03/26 11:42:59;;;;;;;0.37;0.37;;;;;;;24.66;33.19;98457.62;4438724;32;34529;-75
2023/03/26 11:45:31;;;;;;;0.20;0.20;;;;;;;22.41;34.47;98458.28;4438817;32;33747;-75
2023/03/26 11:48:08;;;;;;;0.20;0.20;;;;;;;20.54;38.58;98457.03;4438997;32;34787;-75
2023/03/26 11:50:52;;;;;;;1.08;0.85;;;;;;;20.49;37.49;98444.13;4439651;32;35029;-75
2023/03/26 11:53:25;;;;;;;0.20;0.20;;;;;;;19.45;42.08;98441.84;4426060;32;35235;-75
2023/03/26 11:56:13;;;;;;;0.20;0.20;;;;;;;20.40;42.61;98435.00;4438700;32;33358;-75
2023/03/26 11:59:04;;;;;;;0.30;0.30;;;;;;;21.02;35.28;98438.87;4438878;32;34774;-75
2023/03/26 12:01:49;;;;;;;0.35;0.35;;;;;;;22.25;34.37;98424.06;4425847;32;34741;-75
2023/03/26 12:04:25;;;;;;;0.25;0.25;;;;;;;21.95;29.34;98422.69;4438549;32;34430;-75
2023/03/26 12:06:58;;;;;;;0.10;0.10;;;;;;;21.58;29.76;98420.00;4439733;32;33521;-74
2023/03/26 12:09:27;;;;;;;1.20;1.10;;;;;;;21.01;28.80;98411.53;4438563;32;34044;-74
2023/03/26 12:11:59;;;;;;;0.20;0.20;;;;;;;21.32;29.26;98404.12;4439468;32;35924;-75
2023/03/26 12:14:32;;;;;;;0.20;0.20;;;;;;;21.49;28.60;98396.81;4438763;32;34591;-75
2023/03/26 12:17:10;;;;;;;0.20;0.20;;;;;;;21.22;29.34;98395.13;4439940;32;34374;-75
2023/03/26 12:19:44;;;;;;;0.20;0.20;;;;;;;20.93;27.31;98384.78;4438476;32;34920;-74
2023/03/26 12:22:30;;;;;;;0.10;0.10;;;;;;;21.59;26.58;98376.69;4438617;32;35796;-76